Newport, OR

5:32 PM PST on December 09, 2016 (GMT -0800)
Walker Heights | | Change Station

Elev 285 ft 44.64 °N, 124.04 °W | Updated 4 seconds ago

Overcast
Overcast
50.9 °F
Feels Like 50.9 °F
N
13.4
Wind Variable Wind from WNW
Gusts 15.0 mph

Today
High -- | Low -- °F
--% Chance of Precip.
Yesterday
High -- | Low -- °F
Precip. -- in
Pressure 29.93 in
Visibility 5.0 miles
Clouds Scattered Clouds 900 ft
Mostly Cloudy 3800 ft
Overcast 4600 ft
Dew Point 39 °F
Humidity 63%
Rainfall 0.07 in
Snow Depth Not available.
7:41 AM 4:35 PM
Waxing Gibbous, 79% visible
METAR KONP 100115Z AUTO 20014G20KT 5SM -RA SCT009 BKN038 OVC046 10/08 A2993 RMK AO2
Pressure 29.93 in
Visibility 5.0 miles
Clouds Scattered Clouds 900 ft
Mostly Cloudy 3800 ft
Overcast 4600 ft
Dew Point 39 °F
Humidity 63%
Rainfall 0.07 in
Snow Depth Not available.
7:41 AM 4:35 PM
Waxing Gibbous, 79% visible
METAR KONP 100115Z AUTO 20014G20KT 5SM -RA SCT009 BKN038 OVC046 10/08 A2993 RMK AO2

10-Day Weather Forecast

Almanac

Astronomy

Dec. 09, 2016 Rise Set
Actual Time
Civil Twilight
Nautical Twilight
Astronomical Twilight
Moon
Length of Visible Light
Length of Day
Tomorrow will be .
, % of the Moon is Illuminated

Today's Extremes

State Highs State Lows

Community

WunderPhotos

Upload Photos

1,956,534 photos uploaded!

WunderBlog® & News

Nearby

Air Quality

  Air Quality AQ Index Pollutant
Not available.

Snow Depth

Station Depth Elevation

Earthquake Activity

City Distance Mag. Time & Date
Minimum magnitude displayed is 2.5.

Coastal Water Temperatures

Place Temperature

Stations

Nearby Weather Stations

Station Location Temp. Windchill Dew Point Humidity Wind Precip. Elev Updated Type
                   

Watches & Warnings

There are currently no watches in effect.